Meteo Giornale » Osservazioni meteo Italia » Verona-Villafranca

ore: 22:50 - Osservazioni Meteo Verona-Villafranca
Lat. 45° 23' N Lon. 10° 52' E Alt. 67 metri s.l.m.

sereno Europe/Rome

16 °C

Sereno

Temp. 24 Ore

16 °C

29 °C

Nord

5.5 Km/h

Dew point 16 °C

Umidità 100 %

Visibilità  10 Km

Il sole sorge alle ore 05:29

Il sole tramonta alle ore 21:10

Data e Ora Cielo e Fenomeni T °C DP °C Um. % Pres. hPa Vis. km Vento km/h
Oggi h: 22:50 sereno Sereno 16 16 100 1000 10 N 5.5
Oggi h: 22:20 poco_nuvoloso Poco Nuvoloso 17 16 93 999 10 E/SE 7.4
Oggi h: 21:50 poco_nuvoloso Poco Nuvoloso 17 16 93 999 10 N 7.4
Oggi h: 21:20 nuvoloso Nuvoloso 18 15 82 999 10 NO 7.4
Oggi h: 20:50 nuvoloso Nuvoloso 18 15 82 999 10 O/NO 14.8
Oggi h: 20:20 molto_nuvoloso Molto Nuvoloso 18 15 82 999 10 N/NO 14.8
Oggi h: 19:50 coperto_pioggia Pioggia Debole 17 15 88 1000 10 N/NE 24
Oggi h: 19:20 nuvoloso_temporali Temporale con Pioggia 16 15 93 1001 7 N/NO 27.8
Oggi h: 18:50 nuvoloso_temporali Temporale con Pioggia 16 15 93 1002 3 O 20.3
Oggi h: 18:20 nuvoloso_temporali Temporale con Pioggia 20 19 93 1001 5 O/SO 7.4
Oggi h: 17:50 nuvoloso_temporali Temporale con Pioggia 21 18 82 1001 10 N 5.5
Oggi h: 17:20 nuvoloso_temporali Temporale con Pioggia Debole 23 18 73 1000 10 NE 11.1
Oggi h: 16:50 molto_nuvoloso Molto Nuvoloso 23 17 68 1000 10 NE 14.8
Oggi h: 16:20 nuvoloso Nuvoloso 23 17 68 1000 10 E 18.5
Oggi h: 15:50 molto_nuvoloso Molto Nuvoloso 24 19 73 1000 10 E 18.5
Oggi h: 15:20 coperto_pioggia Pioggia Debole 22 16 68 1001 10 S/SE 9.3
Oggi h: 14:50 nuvoloso_temporali Temporale con Pioggia 19 15 77 1003 6 S/SE 16.7
Oggi h: 14:20 nuvoloso_temporali Temporale con Pioggia 26 20 69 1001 10 E 16.7
Oggi h: 13:50 coperto_temporali Temporale 27 19 61 1002 10 E 14.8
Oggi h: 13:20 nuvoloso Nuvoloso 28 19 58 1001 10 E 14.8
Oggi h: 12:50 nuvoloso Nuvoloso 28 19 58 1002 10 E/NE 18.5
Oggi h: 12:20 nuvoloso Nuvoloso 29 19 54 1003 10 E 20.3
Oggi h: 11:50 nuvoloso Nuvoloso 29 18 51 1003 10 E 18.5
Oggi h: 11:20 nuvoloso Nuvoloso 28 18 54 1003 10 E/NE 18.5
Oggi h: 10:50 nuvoloso Nuvoloso 28 18 54 1000 10 E/NE 20.3
Oggi h: 10:20 nuvoloso Nuvoloso 28 18 54 1004 10 E 18.5
Oggi h: 09:50 molto_nuvoloso Molto Nuvoloso 27 18 57 1004 10 E 16.7
Oggi h: 09:20 nuvoloso Nuvoloso 27 16 50 1004 10 E 18.5
Oggi h: 08:50 sereno Sereno 27 17 54 1004 10 E/NE 16.7
Oggi h: 08:20 poco_nuvoloso Poco Nuvoloso 26 17 57 1004 10 E/NE 16.7
Oggi h: 07:50 poco_nuvoloso Poco Nuvoloso 25 16 57 1004 10 E/NE 13
Oggi h: 07:20 poco_nuvoloso Poco Nuvoloso 24 16 60 1004 10 E/NE 7.4
Oggi h: 06:50 poco_nuvoloso Poco Nuvoloso 24 15 57 1004 10 E/NE 9.3
Oggi h: 06:20 nuvoloso Nuvoloso 23 15 60 1005 10 NE 7.4
Oggi h: 05:50 nuvoloso Nuvoloso 23 16 64 1005 10 E/NE 9.3
Oggi h: 05:20 nuvoloso Nuvoloso 21 16 73 1005 10 N 5.5
Oggi h: 04:50 nuvoloso Nuvoloso 22 16 68 1006 10 N 3.7
Oggi h: 04:20 poco_nuvoloso Poco Nuvoloso 22 16 68 1006 10 N 5.5
Oggi h: 03:50 sereno Sereno 22 16 68 1006 10 N 5.5
Oggi h: 03:20 sereno Sereno 22 16 68 1005 10 E/NE 9.3
Oggi h: 02:50 sereno Sereno 21 16 73 1006 10 N 5.5
Oggi h: 02:20 poco_nuvoloso Poco Nuvoloso 22 15 64 1006 10 N 5.5
Oggi h: 01:50 poco_nuvoloso Poco Nuvoloso 22 16 68 1006 10 E 9.3
Oggi h: 01:20 poco_nuvoloso Poco Nuvoloso 22 16 68 1006 10 N 5.5
Oggi h: 00:50 poco_nuvoloso Poco Nuvoloso 23 17 68 1006 10 N 3.7
Oggi h: 00:20 poco_nuvoloso Poco Nuvoloso 23 16 64 1006 10 N 3.7
Ieri h: 23:50 poco_nuvoloso Poco Nuvoloso 24 15 57 1007 10 N/NE 7.4
Ieri h: 23:20 poco_nuvoloso Poco Nuvoloso 25 15 53 1007 10 NE 9.3
Ieri h: 22:50 nuvoloso Nuvoloso 25 15 53 1007 10 N 3.7